createdAt,value
2023-02-02T00:01:29.592Z,4.18
2023-02-02T00:03:57.060Z,4.00
2023-02-02T00:06:28.277Z,4.90
2023-02-02T00:08:58.192Z,4.53
2023-02-02T00:11:26.013Z,4.20
2023-02-02T00:13:52.946Z,4.00
2023-02-02T00:16:28.971Z,3.90
2023-02-02T00:19:26.986Z,4.00
2023-02-02T00:21:55.157Z,4.15
2023-02-02T00:24:22.220Z,4.70
2023-02-02T00:26:52.423Z,4.07
2023-02-02T00:29:23.730Z,3.97
2023-02-02T00:31:51.446Z,3.60
2023-02-02T00:34:18.985Z,3.85
2023-02-02T00:36:46.793Z,3.72
2023-02-02T00:39:21.343Z,4.07
2023-02-02T00:41:48.285Z,3.33
2023-02-02T00:44:33.358Z,3.92
2023-02-02T00:47:00.435Z,3.95
2023-02-02T00:49:27.228Z,3.95
2023-02-02T00:51:54.024Z,3.95
2023-02-02T00:54:20.784Z,4.47
2023-02-02T00:56:47.807Z,4.70
2023-02-02T00:59:14.544Z,4.43
2023-02-02T01:01:41.262Z,5.38
2023-02-02T01:04:08.434Z,4.18
2023-02-02T01:06:35.432Z,4.85
2023-02-02T01:09:02.787Z,5.50
2023-02-02T01:11:30.770Z,7.20
2023-02-02T01:13:57.612Z,7.78
2023-02-02T01:16:24.721Z,7.40
2023-02-02T01:18:52.258Z,7.18
2023-02-02T01:21:19.132Z,6.47
2023-02-02T01:23:45.915Z,6.82
2023-02-02T01:26:13.849Z,6.35
2023-02-02T01:28:40.748Z,6.13
2023-02-02T01:31:16.435Z,5.88
2023-02-02T01:33:44.992Z,5.10
2023-02-02T01:36:16.051Z,5.20
2023-02-02T01:38:43.001Z,5.15
2023-02-02T01:41:15.969Z,5.10
2023-02-02T01:43:45.299Z,4.57
2023-02-02T01:46:16.946Z,4.25
2023-02-02T01:48:53.892Z,3.97
2023-02-02T01:51:25.669Z,3.95
2023-02-02T01:53:55.498Z,4.80
2023-02-02T01:56:36.384Z,4.05
2023-02-02T01:59:05.117Z,4.00
2023-02-02T02:01:32.067Z,3.40
2023-02-02T02:03:58.949Z,3.45
2023-02-02T02:06:26.300Z,3.30
2023-02-02T02:09:03.547Z,4.28
2023-02-02T02:11:31.770Z,3.95
2023-02-02T02:14:24.102Z,4.68
2023-02-02T02:17:21.635Z,4.18
2023-02-02T02:20:39.385Z,4.32
2023-02-02T02:24:26.055Z,5.07
2023-02-02T02:27:28.517Z,5.43
2023-02-02T02:30:36.905Z,5.07
2023-02-02T02:33:39.100Z,5.40
2023-02-02T02:36:17.376Z,4.95
2023-02-02T02:39:10.248Z,5.10
2023-02-02T02:41:46.302Z,4.70
2023-02-02T02:44:16.659Z,4.97
2023-02-02T02:46:44.482Z,4.80
2023-02-02T02:49:13.070Z,4.88
2023-02-02T02:51:51.559Z,4.45
2023-02-02T02:54:27.512Z,4.65
2023-02-02T02:57:12.468Z,5.07
2023-02-02T03:00:16.552Z,5.10
2023-02-02T03:03:02.587Z,5.78
2023-02-02T03:05:38.216Z,5.32
2023-02-02T03:08:29.270Z,4.70
2023-02-02T03:10:58.611Z,4.70
2023-02-02T03:13:26.844Z,5.18
2023-02-02T03:15:54.324Z,4.57
2023-02-02T03:18:27.185Z,5.80
2023-02-02T03:20:53.880Z,5.22
2023-02-02T03:23:20.930Z,4.95
2023-02-02T03:25:47.980Z,5.28
2023-02-02T03:28:16.279Z,4.45
2023-02-02T03:30:44.915Z,5.00
2023-02-02T03:33:14.160Z,4.10
2023-02-02T03:35:41.056Z,4.70
2023-02-02T03:38:08.873Z,4.28
2023-02-02T03:40:35.719Z,4.38
2023-02-02T03:43:02.889Z,4.43
2023-02-02T03:45:30.411Z,4.10
2023-02-02T03:47:57.115Z,4.20
2023-02-02T03:50:25.332Z,4.38
2023-02-02T03:52:52.070Z,3.90
2023-02-02T03:55:18.784Z,4.07
2023-02-02T03:57:45.483Z,4.15
2023-02-02T04:00:12.849Z,4.85
2023-02-02T04:02:39.875Z,4.57
2023-02-02T04:05:06.850Z,3.83
2023-02-02T04:07:33.616Z,3.72
2023-02-02T04:10:00.372Z,4.10
2023-02-02T04:12:27.205Z,5.10
2023-02-02T04:14:53.926Z,4.00
2023-02-02T04:17:20.649Z,5.13
2023-02-02T04:19:47.349Z,4.72
2023-02-02T04:22:14.073Z,4.00
2023-02-02T04:24:40.771Z,4.50
2023-02-02T04:27:07.461Z,4.20
2023-02-02T04:29:34.194Z,4.45
2023-02-02T04:32:00.870Z,4.45
2023-02-02T04:34:28.100Z,4.60
2023-02-02T04:36:55.901Z,4.40
2023-02-02T04:39:22.717Z,4.22
2023-02-02T04:41:49.401Z,4.07
2023-02-02T04:44:16.720Z,3.92
2023-02-02T04:46:44.678Z,4.03
2023-02-02T04:49:12.555Z,4.38
2023-02-02T04:51:40.528Z,4.40
2023-02-02T04:54:08.376Z,4.13
2023-02-02T04:56:35.971Z,5.38
2023-02-02T04:59:02.683Z,4.82
2023-02-02T05:01:30.700Z,4.47
2023-02-02T05:03:58.113Z,4.53
2023-02-02T05:06:24.991Z,4.30
2023-02-02T05:08:51.706Z,4.45
2023-02-02T05:11:22.054Z,4.75
2023-02-02T05:13:51.924Z,4.43
2023-02-02T05:16:19.462Z,4.63
2023-02-02T05:18:51.649Z,4.88
2023-02-02T05:23:45.713Z,4.68
2023-02-02T05:26:21.307Z,4.82
2023-02-02T05:28:48.463Z,4.78
2023-02-02T05:31:15.431Z,5.88
2023-02-02T05:33:42.649Z,6.13
2023-02-02T05:36:09.836Z,5.90
2023-02-02T05:38:36.594Z,6.78
2023-02-02T06:02:26.844Z,5.40
2023-02-02T06:04:53.532Z,6.70
2023-02-02T06:07:20.382Z,6.07
2023-02-02T06:09:47.172Z,7.32
2023-02-02T06:12:13.983Z,7.15
2023-02-02T06:14:40.698Z,6.40
2023-02-02T06:17:07.492Z,7.30
2023-02-02T06:19:34.244Z,6.85
2023-02-02T06:22:00.960Z,8.25
2023-02-02T06:24:27.650Z,8.57
2023-02-02T06:26:54.373Z,8.23
2023-02-02T06:29:21.349Z,9.02
2023-02-02T06:31:48.142Z,8.55
2023-02-02T06:34:14.992Z,8.30
2023-02-02T06:36:42.378Z,8.93
2023-02-02T06:39:09.608Z,8.80
2023-02-02T06:41:36.363Z,8.00
2023-02-02T06:44:03.349Z,8.63
2023-02-02T06:46:30.083Z,8.75
2023-02-02T06:48:56.825Z,8.13
2023-02-02T06:51:23.606Z,8.52
2023-02-02T06:53:50.323Z,8.80
2023-02-02T06:56:17.742Z,8.52
2023-02-02T06:58:44.635Z,8.07
2023-02-02T07:01:13.682Z,7.88
2023-02-02T07:03:40.989Z,8.90
2023-02-02T07:06:15.696Z,9.07
2023-02-02T07:08:42.969Z,10.23
2023-02-02T07:11:15.391Z,10.60
2023-02-02T07:13:45.460Z,9.80
2023-02-02T07:16:13.143Z,11.68
2023-02-02T07:18:40.636Z,11.30
2023-02-02T07:21:07.435Z,11.48
2023-02-02T07:23:34.502Z,12.05
2023-02-02T07:26:07.747Z,12.98
2023-02-02T07:28:35.093Z,12.55
2023-02-02T07:31:16.258Z,13.38
2023-02-02T07:33:45.052Z,12.30
2023-02-02T07:36:16.056Z,14.23
2023-02-02T07:38:43.849Z,11.30
2023-02-02T07:41:10.761Z,12.18
2023-02-02T07:43:37.791Z,12.63
2023-02-02T07:46:08.227Z,12.05
2023-02-02T07:48:36.117Z,10.80
2023-02-02T07:51:09.829Z,9.07
2023-02-02T07:53:36.579Z,9.50
2023-02-02T07:56:23.231Z,8.52
2023-02-02T07:58:53.438Z,7.97
2023-02-02T08:01:22.688Z,7.28
2023-02-02T08:03:50.550Z,7.22
2023-02-02T08:06:28.274Z,7.72
2023-02-02T08:08:55.350Z,7.35
2023-02-02T08:11:24.235Z,7.78
2023-02-02T08:13:59.070Z,7.00
2023-02-02T08:16:28.339Z,7.78
2023-02-02T08:18:55.619Z,7.22
2023-02-02T08:21:22.954Z,7.32
2023-02-02T08:23:49.845Z,7.35
2023-02-02T08:26:23.667Z,7.15
2023-02-02T08:29:04.302Z,7.63
2023-02-02T08:31:35.050Z,5.75
2023-02-02T08:34:02.718Z,6.15
2023-02-02T08:36:30.984Z,7.22
2023-02-02T08:39:03.784Z,7.03
2023-02-02T08:41:30.745Z,6.30
2023-02-02T08:43:57.482Z,5.65
2023-02-02T08:46:25.311Z,5.63
2023-02-02T08:48:52.074Z,5.57
2023-02-02T08:51:20.294Z,7.10
2023-02-02T08:53:47.897Z,6.30
2023-02-02T08:56:20.554Z,7.13
2023-02-02T08:58:50.678Z,7.28
2023-02-02T09:01:24.238Z,8.73
2023-02-02T09:04:04.739Z,8.93
2023-02-02T09:06:35.644Z,8.35
2023-02-02T09:09:04.848Z,7.85
2023-02-02T09:11:31.775Z,8.50
2023-02-02T09:14:01.995Z,8.98
2023-02-02T09:16:29.736Z,8.90
2023-02-02T09:18:57.451Z,8.10
2023-02-02T09:21:24.660Z,9.25
2023-02-02T09:23:55.631Z,8.90
2023-02-02T09:26:28.477Z,8.38
2023-02-02T09:29:04.573Z,9.02
2023-02-02T09:31:35.133Z,8.70
2023-02-02T09:34:03.719Z,8.18
2023-02-02T09:36:30.589Z,8.13
2023-02-02T09:38:57.524Z,9.10
2023-02-02T09:41:26.975Z,9.20
2023-02-02T09:44:05.632Z,8.57
2023-02-02T09:47:15.719Z,8.25
2023-02-02T09:50:28.272Z,8.25
2023-02-02T09:53:58.127Z,7.82
2023-02-02T09:56:34.518Z,6.90
2023-02-02T09:59:18.720Z,6.80
2023-02-02T10:01:51.847Z,7.25
2023-02-02T10:04:32.628Z,7.07
2023-02-02T10:07:09.902Z,6.57
2023-02-02T10:09:50.657Z,7.20
2023-02-02T10:12:57.899Z,7.13
2023-02-02T10:15:41.350Z,6.38
2023-02-02T10:18:21.142Z,6.32
2023-02-02T10:20:59.919Z,6.07
2023-02-02T10:23:40.345Z,6.00
2023-02-02T10:26:23.628Z,6.13
2023-02-02T10:29:05.643Z,6.57
2023-02-02T10:31:44.162Z,6.80
2023-02-02T10:34:33.174Z,6.30
2023-02-02T10:37:38.298Z,5.68
2023-02-02T10:40:26.106Z,5.32
2023-02-02T10:43:42.616Z,5.10
2023-02-02T10:46:18.103Z,5.00
2023-02-02T10:48:48.011Z,5.68
2023-02-02T10:51:23.720Z,5.43
2023-02-02T10:53:54.690Z,5.45
2023-02-02T10:56:49.000Z,5.10
2023-02-02T10:59:21.092Z,5.35
2023-02-02T11:04:34.093Z,5.97
2023-02-02T11:07:01.691Z,5.20
2023-02-02T11:09:36.858Z,6.65
2023-02-02T11:12:21.000Z,5.70
2023-02-02T11:14:56.823Z,6.03
2023-02-02T11:17:25.492Z,5.30
2023-02-02T11:19:55.600Z,5.60
2023-02-02T11:22:38.371Z,5.82
2023-02-02T11:25:11.299Z,5.45
2023-02-02T11:27:42.961Z,5.90
2023-02-02T11:30:37.198Z,5.47
2023-02-02T11:33:30.161Z,5.38
2023-02-02T11:36:20.434Z,5.45
2023-02-02T11:38:47.176Z,5.82
2023-02-02T11:41:17.082Z,5.63
2023-02-02T11:43:53.387Z,5.53
2023-02-02T11:46:24.396Z,5.55
2023-02-02T11:49:08.286Z,5.87
2023-02-02T11:51:35.245Z,5.78
2023-02-02T11:54:06.385Z,5.55
2023-02-02T11:56:35.691Z,4.93
2023-02-02T11:59:03.941Z,6.18
2023-02-02T12:01:39.432Z,6.30
2023-02-02T12:04:18.442Z,7.40
2023-02-02T12:06:45.617Z,6.80
2023-02-02T12:09:17.328Z,7.43
2023-02-02T12:12:03.405Z,7.30
2023-02-02T12:14:51.758Z,6.68
2023-02-02T12:17:44.920Z,5.90
2023-02-02T12:20:39.921Z,8.20
2023-02-02T12:23:27.634Z,6.35
2023-02-02T12:26:19.539Z,6.45
2023-02-02T12:29:13.850Z,7.43
2023-02-02T12:31:51.864Z,7.47
2023-02-02T12:35:04.085Z,6.32
2023-02-02T12:38:01.956Z,6.78
2023-02-02T12:40:51.728Z,7.03
2023-02-02T12:43:39.916Z,6.15
2023-02-02T12:46:22.399Z,6.40
2023-02-02T12:49:17.288Z,7.25
2023-02-02T12:52:09.964Z,8.00
2023-02-02T12:55:17.340Z,7.70
2023-02-02T12:58:25.176Z,8.90
2023-02-02T13:01:22.955Z,7.82
2023-02-02T13:03:55.418Z,9.77
2023-02-02T13:06:36.025Z,11.65
2023-02-02T13:09:10.955Z,8.88
2023-02-02T13:11:50.555Z,7.00
2023-02-02T13:14:26.484Z,6.82
2023-02-02T13:17:22.655Z,6.88
2023-02-02T13:19:54.439Z,6.60
2023-02-02T13:22:34.804Z,7.47
2023-02-02T13:25:05.278Z,6.20
2023-02-02T13:27:33.329Z,6.07
2023-02-02T13:30:34.968Z,6.50
2023-02-02T13:33:18.628Z,6.30
2023-02-02T13:35:57.017Z,5.72
2023-02-02T13:38:30.818Z,6.03
2023-02-02T13:41:06.872Z,5.32
2023-02-02T13:43:55.671Z,5.63
2023-02-02T13:46:57.332Z,5.80
2023-02-02T13:49:35.187Z,6.37
2023-02-02T13:52:16.825Z,5.60
2023-02-02T13:55:28.355Z,5.43
2023-02-02T13:58:20.002Z,5.73
2023-02-02T14:01:01.430Z,5.95
2023-02-02T14:03:40.047Z,5.38
2023-02-02T14:06:20.420Z,5.65
2023-02-02T14:08:56.108Z,5.90
2023-02-02T14:11:33.567Z,5.72
2023-02-02T14:14:34.877Z,6.20
2023-02-02T14:17:13.524Z,7.22
2023-02-02T14:19:42.087Z,6.40
2023-02-02T14:22:37.753Z,7.25
2023-02-02T14:25:33.290Z,6.78
2023-02-02T14:28:02.361Z,6.75
2023-02-02T14:30:41.028Z,6.10
2023-02-02T14:33:27.968Z,7.10
2023-02-02T14:36:01.210Z,7.72
2023-02-02T14:38:49.998Z,7.60
2023-02-02T14:42:13.831Z,7.00
2023-02-02T14:45:14.891Z,6.72
2023-02-02T14:47:53.755Z,6.40
2023-02-02T14:50:28.437Z,6.90
2023-02-02T14:53:20.765Z,5.80
2023-02-02T14:58:45.913Z,6.15
2023-02-02T15:01:17.069Z,5.20
2023-02-02T15:03:44.398Z,5.63
2023-02-02T15:06:29.863Z,5.43
2023-02-02T15:09:27.883Z,6.20
2023-02-02T15:12:03.498Z,4.72
2023-02-02T15:14:53.507Z,4.93
2023-02-02T15:17:41.501Z,4.93
2023-02-02T15:20:22.533Z,4.70
2023-02-02T15:22:49.208Z,5.10
2023-02-02T15:25:26.187Z,5.07
2023-02-02T15:28:04.501Z,4.95
2023-02-02T15:30:34.892Z,4.88
2023-02-02T15:33:15.377Z,4.88
2023-02-02T15:35:42.609Z,4.95
2023-02-02T15:38:16.261Z,5.22
2023-02-02T15:40:43.980Z,5.28
2023-02-02T15:43:10.993Z,5.00
2023-02-02T15:46:00.765Z,5.45
2023-02-02T15:48:31.037Z,5.78
2023-02-02T15:51:13.783Z,6.20
2023-02-02T15:53:43.514Z,6.25
2023-02-02T15:56:25.467Z,6.60
2023-02-02T15:58:55.545Z,7.25
2023-02-02T16:01:24.958Z,7.00
2023-02-02T16:04:18.061Z,7.50
2023-02-02T16:06:45.581Z,8.13
2023-02-02T16:09:26.050Z,7.78
2023-02-02T16:11:53.512Z,9.18
2023-02-02T16:14:20.787Z,11.10
2023-02-02T16:16:50.747Z,11.18
2023-02-02T16:19:26.565Z,10.18
2023-02-02T16:22:09.235Z,10.30
2023-02-02T16:24:44.179Z,11.20
2023-02-02T16:27:18.466Z,10.88
2023-02-02T16:29:45.499Z,12.13
2023-02-02T16:32:38.734Z,12.27
2023-02-02T16:35:34.509Z,12.35
2023-02-02T16:38:34.060Z,13.35
2023-02-02T16:41:25.834Z,15.00
2023-02-02T16:43:52.919Z,12.10
2023-02-02T16:46:47.864Z,13.70
2023-02-02T16:49:23.729Z,12.98
2023-02-02T16:52:11.870Z,14.15
2023-02-02T16:54:43.214Z,12.52
2023-02-02T16:57:41.331Z,12.38
2023-02-02T17:00:19.349Z,13.52
2023-02-02T17:02:48.596Z,13.98
2023-02-02T17:05:31.578Z,13.63
2023-02-02T17:08:04.416Z,14.57
2023-02-02T17:10:35.761Z,16.15
2023-02-02T17:13:33.375Z,15.73
2023-02-02T17:16:00.503Z,16.27
2023-02-02T17:18:27.311Z,16.48
2023-02-02T17:21:03.948Z,18.40
2023-02-02T17:23:32.553Z,18.48
2023-02-02T17:25:59.481Z,17.17
2023-02-02T17:28:27.523Z,17.15
2023-02-02T17:31:09.509Z,19.08
2023-02-02T17:33:37.123Z,17.50
2023-02-02T17:36:04.749Z,17.13
2023-02-02T17:38:32.641Z,16.30
2023-02-02T17:41:03.620Z,16.65
2023-02-02T17:43:31.453Z,16.95
2023-02-02T17:45:58.362Z,17.60
2023-02-02T17:48:25.061Z,16.90
2023-02-02T17:50:51.876Z,17.58
2023-02-02T17:53:21.424Z,16.98
2023-02-02T17:55:49.875Z,16.17
2023-02-02T17:58:19.692Z,15.68
2023-02-02T18:00:53.415Z,14.80
2023-02-02T18:03:24.935Z,13.38
2023-02-02T18:05:52.133Z,13.35
2023-02-02T18:08:19.545Z,12.73
2023-02-02T18:10:46.338Z,12.88
2023-02-02T18:13:16.184Z,12.93
2023-02-02T18:15:43.983Z,12.63
2023-02-02T18:18:12.386Z,12.45
2023-02-02T18:20:47.399Z,12.52
2023-02-02T18:23:15.979Z,11.98
2023-02-02T18:25:43.058Z,13.02
2023-02-02T18:28:10.959Z,12.32
2023-02-02T18:30:39.564Z,11.60
2023-02-02T18:33:09.151Z,11.40
2023-02-02T18:35:45.908Z,11.15
2023-02-02T18:38:13.112Z,11.07
2023-02-02T18:40:40.087Z,11.35
2023-02-02T18:43:06.993Z,10.10
2023-02-02T18:45:33.750Z,10.95
2023-02-02T18:48:00.479Z,10.95
2023-02-02T18:50:27.429Z,10.60
2023-02-02T18:52:54.291Z,10.57
2023-02-02T18:55:21.600Z,10.38
2023-02-02T18:57:48.285Z,11.43
2023-02-02T19:00:15.803Z,10.98
2023-02-02T19:02:42.566Z,11.05
2023-02-02T19:05:28.133Z,9.68
2023-02-02T19:07:55.007Z,10.10
2023-02-02T19:10:24.365Z,9.52
2023-02-02T19:12:54.541Z,10.55
2023-02-02T19:15:22.364Z,10.32
2023-02-02T19:17:54.941Z,10.13
2023-02-02T19:20:29.969Z,10.48
2023-02-02T19:23:10.164Z,8.77
2023-02-02T19:25:36.893Z,9.13
2023-02-02T19:28:25.302Z,9.80
2023-02-02T19:30:55.915Z,8.70
2023-02-02T19:33:39.312Z,8.63
2023-02-02T19:36:14.148Z,8.98
2023-02-02T19:38:41.136Z,8.07
2023-02-02T19:41:23.499Z,8.68
2023-02-02T19:43:58.149Z,8.90
2023-02-02T19:46:27.764Z,8.43
2023-02-02T19:49:10.416Z,8.20
2023-02-02T19:51:46.576Z,8.38
2023-02-02T19:54:40.909Z,8.45
2023-02-02T19:57:20.978Z,8.25
2023-02-02T19:59:51.004Z,7.82
2023-02-02T20:02:52.012Z,8.52
2023-02-02T20:05:35.372Z,7.93
2023-02-02T20:08:26.416Z,8.30
2023-02-02T20:10:58.238Z,7.90
2023-02-02T20:13:47.593Z,7.63
2023-02-02T20:16:20.814Z,7.38
2023-02-02T20:18:57.810Z,7.75
2023-02-02T20:21:41.781Z,8.00
2023-02-02T20:24:18.069Z,7.38
2023-02-02T20:26:45.912Z,7.68
2023-02-02T20:29:37.922Z,6.95
2023-02-02T20:32:05.928Z,7.38
2023-02-02T20:34:42.353Z,7.28
2023-02-02T20:37:11.993Z,7.10
2023-02-02T20:39:47.747Z,7.95
2023-02-02T20:42:15.278Z,7.93
2023-02-02T20:44:42.267Z,8.00
2023-02-02T20:47:09.168Z,6.93
2023-02-02T20:49:37.136Z,6.78
2023-02-02T20:52:11.186Z,6.57
2023-02-02T20:54:39.218Z,7.25
2023-02-02T20:57:06.833Z,6.80
2023-02-02T20:59:33.562Z,7.10
2023-02-02T21:02:00.695Z,7.60
2023-02-02T21:04:28.011Z,7.00
2023-02-02T21:06:55.383Z,6.63
2023-02-02T21:09:22.307Z,7.47
2023-02-02T21:11:49.079Z,6.95
2023-02-02T21:14:15.839Z,7.13
2023-02-02T21:16:42.745Z,7.45
2023-02-02T21:19:09.680Z,6.63
2023-02-02T21:21:36.551Z,7.07
2023-02-02T21:24:04.111Z,6.45
2023-02-02T21:26:31.150Z,7.05
2023-02-02T21:28:58.378Z,6.10
2023-02-02T21:31:26.047Z,6.22
2023-02-02T21:33:53.179Z,5.63
2023-02-02T21:36:47.114Z,5.90
2023-02-02T21:39:21.764Z,6.00
2023-02-02T21:41:50.453Z,5.85
2023-02-02T21:44:22.452Z,5.65
2023-02-02T21:46:51.348Z,5.18
2023-02-02T21:49:22.672Z,5.65
2023-02-02T21:51:49.852Z,5.38
2023-02-02T21:54:26.273Z,5.40
2023-02-02T21:56:53.888Z,5.22
2023-02-02T21:59:24.537Z,5.00
2023-02-02T22:01:52.730Z,5.25
2023-02-02T22:04:26.783Z,5.18
2023-02-02T22:06:58.757Z,5.03
2023-02-02T22:09:30.848Z,5.22
2023-02-02T22:14:38.242Z,5.53
2023-02-02T22:17:37.569Z,4.78
2023-02-02T22:20:33.136Z,5.45
2023-02-02T22:23:02.369Z,5.80
2023-02-02T22:25:34.224Z,5.20
2023-02-02T22:28:14.675Z,5.07
2023-02-02T22:30:42.241Z,5.00
2023-02-02T22:33:11.665Z,5.07
2023-02-02T22:35:39.473Z,5.18
2023-02-02T22:38:06.954Z,5.40
2023-02-02T22:40:34.038Z,4.95
2023-02-02T22:43:05.523Z,5.47
2023-02-02T22:45:32.542Z,5.13
2023-02-02T22:47:59.383Z,5.78
2023-02-02T22:50:29.616Z,5.60
2023-02-02T22:52:56.753Z,5.45
2023-02-02T22:55:24.478Z,5.30
2023-02-02T22:57:51.230Z,5.35
2023-02-02T23:00:29.752Z,5.85
2023-02-02T23:02:57.281Z,6.10
2023-02-02T23:05:26.032Z,6.40
2023-02-02T23:07:53.706Z,6.40
2023-02-02T23:10:26.991Z,5.55
2023-02-02T23:12:55.627Z,5.63
2023-02-02T23:15:22.517Z,5.95
2023-02-02T23:17:49.885Z,6.28
2023-02-02T23:20:17.378Z,6.68
2023-02-02T23:22:44.283Z,6.10
2023-02-02T23:25:13.411Z,6.00
2023-02-02T23:27:40.259Z,5.50
2023-02-02T23:30:09.658Z,5.45
2023-02-02T23:32:36.531Z,6.07
2023-02-02T23:35:04.327Z,5.55
2023-02-02T23:37:31.221Z,5.75
2023-02-02T23:39:57.924Z,5.45
2023-02-02T23:42:25.539Z,5.75
2023-02-02T23:44:52.562Z,4.97
2023-02-02T23:47:19.722Z,5.22
2023-02-02T23:49:46.559Z,6.03
2023-02-02T23:52:13.966Z,5.45
2023-02-02T23:54:42.238Z,5.68
2023-02-02T23:57:09.278Z,5.75
2023-02-02T23:59:36.054Z,5.60
